Time;durP1;ratioP1;P1;durP2;ratioP2;P2;SDS_P1;SDS_P2;PMS_P1;PMS_P2;Temp;Humidity;BMP_temperature;BMP_pressure;BME280_temperature;BME280_humidity;BME280_pressure;Samples;Min_cycle;Max_cycle;Signal;HPM_P1;HPM_P2
2023/08/30 00:01:12;;;;;;;17.60;8.50;;;;;;;20.43;100.00;100708.35;105828;1257;63738;-56
2023/08/30 00:03:39;;;;;;;17.00;7.90;;;;;;;20.44;100.00;100692.88;105892;1257;72573;-53
2023/08/30 00:06:07;;;;;;;13.60;7.60;;;;;;;20.45;100.00;100664.63;105890;1257;61983;-51
2023/08/30 00:08:34;;;;;;;11.60;7.60;;;;;;;20.49;100.00;100628.11;105894;1253;60405;-52
2023/08/30 00:11:02;;;;;;;15.10;9.20;;;;;;;20.51;100.00;100596.95;105893;1256;73647;-53
2023/08/30 00:13:31;;;;;;;15.50;7.30;;;;;;;20.52;100.00;100570.94;105910;1257;64463;-52
2023/08/30 00:15:58;;;;;;;20.70;7.40;;;;;;;20.52;100.00;100545.90;105885;1253;71355;-52
2023/08/30 00:18:26;;;;;;;18.30;7.40;;;;;;;20.52;100.00;100524.19;105898;1257;61848;-54
2023/08/30 00:20:53;;;;;;;19.30;8.10;;;;;;;20.53;100.00;100505.02;105899;1254;60418;-51
2023/08/30 00:23:20;;;;;;;22.90;8.40;;;;;;;20.54;100.00;100486.88;105917;1256;73814;-53
2023/08/30 00:25:47;;;;;;;19.70;8.40;;;;;;;20.55;100.00;100474.89;105898;1256;64551;-52
2023/08/30 00:28:13;;;;;;;13.70;7.90;;;;;;;20.55;100.00;100459.85;105973;1254;72581;-57
2023/08/30 00:30:40;;;;;;;18.00;8.00;;;;;;;20.54;100.00;100445.86;105902;1254;61846;-52
2023/08/30 00:33:07;;;;;;;15.00;7.40;;;;;;;20.56;100.00;100430.36;105708;1253;60569;-52
2023/08/30 00:35:34;;;;;;;14.10;7.90;;;;;;;20.56;100.00;100423.53;105684;1253;73780;-52
2023/08/30 00:38:01;;;;;;;18.20;7.80;;;;;;;20.54;100.00;100423.41;105908;1256;64676;-52
2023/08/30 00:40:28;;;;;;;21.30;8.20;;;;;;;20.54;100.00;100422.56;105857;1254;73082;-52
2023/08/30 00:42:56;;;;;;;16.80;9.30;;;;;;;20.56;100.00;100423.34;105799;1256;61811;-52
2023/08/30 00:45:23;;;;;;;18.10;7.90;;;;;;;20.57;100.00;100417.31;105844;1253;60399;-54
2023/08/30 00:47:50;;;;;;;13.50;7.80;;;;;;;20.55;100.00;100416.38;105620;1254;324341;-52
2023/08/30 00:51:38;;;;;;;15.50;9.00;;;;;;;20.53;100.00;100410.73;102362;1292;603040;-51
2023/08/30 00:54:06;;;;;;;13.40;7.80;;;;;;;20.50;100.00;100445.79;104845;1266;59666;-53
2023/08/30 00:56:33;;;;;;;13.70;8.20;;;;;;;20.48;100.00;100457.29;104817;1268;60232;-50
2023/08/30 00:59:01;;;;;;;19.70;8.30;;;;;;;20.46;100.00;100472.64;104814;1267;72436;-50
2023/08/30 01:01:28;;;;;;;21.10;8.40;;;;;;;20.43;100.00;100488.77;104848;1272;64629;-52
2023/08/30 01:03:55;;;;;;;16.80;8.30;;;;;;;20.40;100.00;100503.83;104686;1269;199826;-50
2023/08/30 01:06:22;;;;;;;20.60;8.10;;;;;;;20.36;100.00;100523.50;104982;1269;60547;-52
2023/08/30 01:08:51;;;;;;;15.90;9.20;;;;;;;20.32;100.00;100537.38;105164;1264;60171;-50
2023/08/30 01:11:24;;;;;;;15.90;8.10;;;;;;;20.28;100.00;100556.92;105177;1263;71999;-56
2023/08/30 01:13:55;;;;;;;17.30;9.40;;;;;;;20.25;100.00;100574.83;104959;1269;64554;-52
2023/08/30 01:16:23;;;;;;;17.40;8.00;;;;;;;20.20;100.00;100596.06;104921;1270;70559;-52
2023/08/30 01:18:55;;;;;;;23.40;8.10;;;;;;;20.17;100.00;100628.51;105163;1269;61721;-50
2023/08/30 01:21:40;;;;;;;16.90;8.50;;;;;;;20.13;100.00;100653.75;105167;1264;60181;-52
2023/08/30 01:24:07;;;;;;;16.00;9.30;;;;;;;20.13;100.00;100675.69;105200;1269;73066;-52
2023/08/30 01:27:13;;;;;;;31.90;11.50;;;;;;;20.12;100.00;100686.95;104889;1269;65008;-51
2023/08/30 01:29:42;;;;;;;22.30;10.40;;;;;;;20.09;100.00;100706.52;105821;1254;72650;-54
2023/08/30 01:32:09;;;;;;;14.90;8.60;;;;;;;20.06;100.00;100722.27;105628;1260;61910;-51
2023/08/30 01:34:38;;;;;;;15.20;7.90;;;;;;;20.03;100.00;100735.56;105701;1254;60252;-52
2023/08/30 01:37:08;;;;;;;21.10;8.50;;;;;;;20.01;100.00;100753.55;105901;1255;71746;-50
2023/08/30 01:39:39;;;;;;;12.90;8.70;;;;;;;19.98;100.00;100774.36;105900;1256;64856;-51
2023/08/30 01:42:07;;;;;;;16.90;9.80;;;;;;;19.94;100.00;100790.87;105730;1260;71092;-50
2023/08/30 01:44:34;;;;;;;19.50;8.80;;;;;;;19.91;100.00;100806.59;105738;1259;61868;-51
2023/08/30 01:47:01;;;;;;;15.80;8.80;;;;;;;19.88;100.00;100827.23;105696;1267;59787;-51
2023/08/30 01:49:32;;;;;;;19.00;8.90;;;;;;;19.82;100.00;100835.75;105677;1254;72874;-55
2023/08/30 01:51:58;;;;;;;14.90;8.80;;;;;;;19.74;100.00;100845.23;105851;1257;64656;-50
2023/08/30 01:54:25;;;;;;;14.00;8.60;;;;;;;19.69;100.00;100855.33;105862;1254;71623;-55
2023/08/30 01:56:52;;;;;;;13.70;8.70;;;;;;;19.63;100.00;100868.56;105706;1257;60973;-51
2023/08/30 01:59:19;;;;;;;22.50;8.80;;;;;;;19.57;100.00;100874.46;105702;1253;60282;-52
2023/08/30 02:01:46;;;;;;;19.30;9.00;;;;;;;19.50;100.00;100884.40;105690;1258;72971;-52
2023/08/30 02:04:13;;;;;;;16.60;8.90;;;;;;;19.44;100.00;100889.96;105849;1257;64666;-50
2023/08/30 02:07:00;;;;;;;15.90;9.20;;;;;;;19.38;100.00;100888.68;105749;1253;72635;-52
2023/08/30 02:09:29;;;;;;;19.20;9.90;;;;;;;19.34;100.00;100889.56;105783;1254;59722;-51
2023/08/30 02:11:56;;;;;;;17.90;10.10;;;;;;;19.32;100.00;100889.48;105875;1257;59621;-52
2023/08/30 02:14:23;;;;;;;16.00;9.20;;;;;;;19.29;100.00;100889.98;105860;1257;73056;-52
2023/08/30 02:16:50;;;;;;;16.50;9.50;;;;;;;19.26;100.00;100890.84;105676;1260;64446;-50
2023/08/30 02:19:20;;;;;;;16.50;9.80;;;;;;;19.23;100.00;100896.38;105666;1253;72638;-54
2023/08/30 02:21:48;;;;;;;20.20;9.50;;;;;;;19.21;100.00;100897.70;105827;1257;62045;-51
2023/08/30 02:24:15;;;;;;;20.40;9.10;;;;;;;19.19;100.00;100896.92;105739;1253;60241;-52
2023/08/30 02:26:42;;;;;;;25.90;9.50;;;;;;;19.18;100.00;100898.36;105999;1257;72953;-54
2023/08/30 02:29:09;;;;;;;20.00;9.10;;;;;;;19.17;100.00;100899.79;105863;1256;64663;-53
2023/08/30 02:31:37;;;;;;;23.30;10.50;;;;;;;19.16;100.00;100903.54;105911;1257;72575;-53
2023/08/30 02:34:04;;;;;;;27.30;10.00;;;;;;;19.14;100.00;100904.01;105826;1257;61731;-53
2023/08/30 02:36:31;;;;;;;18.50;9.10;;;;;;;19.13;100.00;100903.17;105859;1252;60135;-54
2023/08/30 02:38:58;;;;;;;20.00;9.00;;;;;;;19.13;100.00;100905.29;105886;1254;73012;-52
2023/08/30 02:41:24;;;;;;;20.30;8.40;;;;;;;19.13;100.00;100908.94;105893;1257;64768;-52
2023/08/30 02:43:52;;;;;;;14.60;8.30;;;;;;;19.15;100.00;100909.71;105825;1254;72451;-54
2023/08/30 02:46:19;;;;;;;18.80;8.80;;;;;;;19.16;100.00;100912.45;105852;1257;60176;-54
2023/08/30 02:48:47;;;;;;;18.90;9.20;;;;;;;19.18;100.00;100910.63;105882;1254;59990;-51
2023/08/30 02:51:14;;;;;;;22.60;9.80;;;;;;;19.18;100.00;100913.77;105906;1257;73010;-53
2023/08/30 02:53:41;;;;;;;18.50;9.10;;;;;;;19.19;100.00;100917.23;105887;1257;64660;-51
2023/08/30 02:56:08;;;;;;;16.10;9.10;;;;;;;19.19;100.00;100916.85;105888;1254;72658;-53
2023/08/30 02:58:35;;;;;;;20.00;9.00;;;;;;;19.20;100.00;100919.77;105899;1257;60825;-51
2023/08/30 03:01:02;;;;;;;22.20;8.40;;;;;;;19.20;100.00;100916.98;105683;1253;60324;-51
2023/08/30 03:03:29;;;;;;;21.10;8.80;;;;;;;19.20;100.00;100919.96;105901;1256;72976;-51
2023/08/30 03:05:56;;;;;;;22.30;9.40;;;;;;;19.19;100.00;100918.26;105860;1258;64381;-52
2023/08/30 03:08:24;;;;;;;20.10;8.50;;;;;;;19.19;100.00;100918.80;105855;1254;72786;-51
2023/08/30 03:10:51;;;;;;;23.40;8.20;;;;;;;19.19;100.00;100916.34;105906;1257;60983;-52
2023/08/30 03:13:18;;;;;;;21.90;8.30;;;;;;;19.22;100.00;100910.98;105871;1252;60204;-54
2023/08/30 03:15:45;;;;;;;15.10;7.90;;;;;;;19.23;100.00;100912.65;105865;1254;73143;-53
2023/08/30 03:18:12;;;;;;;19.90;8.30;;;;;;;19.25;100.00;100911.69;105667;1260;64371;-50
2023/08/30 03:20:39;;;;;;;15.00;8.80;;;;;;;19.29;100.00;100911.53;105701;1254;72648;-53
2023/08/30 03:23:07;;;;;;;24.80;8.70;;;;;;;19.30;100.00;100911.97;105839;1256;60192;-52
2023/08/30 03:25:34;;;;;;;16.20;8.90;;;;;;;19.31;100.00;100912.45;105699;1254;60303;-52
2023/08/30 03:28:00;;;;;;;14.40;8.00;;;;;;;19.32;100.00;100911.35;105824;1257;71881;-49
2023/08/30 03:30:30;;;;;;;15.40;8.50;;;;;;;19.35;100.00;100910.86;105693;1259;64705;-52
2023/08/30 03:32:56;;;;;;;22.40;7.30;;;;;;;19.37;100.00;100907.30;105688;1254;71614;-52
2023/08/30 03:35:23;;;;;;;18.20;8.00;;;;;;;19.39;100.00;100907.02;105612;1259;61797;-50
2023/08/30 03:37:50;;;;;;;18.60;7.80;;;;;;;19.41;100.00;100907.27;105708;1254;60067;-50
2023/08/30 03:40:17;;;;;;;30.90;8.60;;;;;;;19.46;100.00;100910.54;105887;1257;71867;-50
2023/08/30 03:42:44;;;;;;;20.00;8.30;;;;;;;19.48;100.00;100913.38;105717;1260;64715;-53
2023/08/30 03:45:11;;;;;;;23.00;8.20;;;;;;;19.50;100.00;100910.85;105666;1259;72631;-56
2023/08/30 03:47:38;;;;;;;13.80;7.60;;;;;;;19.51;100.00;100914.66;105838;1257;61781;-50
2023/08/30 03:50:06;;;;;;;14.70;8.20;;;;;;;19.51;100.00;100917.42;105909;1254;60250;-55
2023/08/30 03:52:34;;;;;;;25.10;7.50;;;;;;;19.54;100.00;100921.70;105841;1257;72861;-51
2023/08/30 03:55:02;;;;;;;16.20;8.10;;;;;;;19.59;100.00;100924.95;105701;1259;64669;-51
2023/08/30 03:57:29;;;;;;;15.50;8.50;;;;;;;19.64;100.00;100928.93;105648;1254;72627;-51
2023/08/30 03:59:55;;;;;;;13.40;8.30;;;;;;;19.68;100.00;100931.52;105846;1257;61961;-49
2023/08/30 04:02:23;;;;;;;15.80;8.10;;;;;;;19.74;100.00;100929.48;105857;1254;60276;-51
2023/08/30 04:04:49;;;;;;;12.10;7.40;;;;;;;19.83;100.00;100936.56;105870;1257;73350;-52
2023/08/30 04:07:16;;;;;;;16.20;6.90;;;;;;;19.90;100.00;100934.67;105674;1261;64738;-52
2023/08/30 04:09:44;;;;;;;17.10;8.20;;;;;;;19.98;100.00;100937.61;105711;1259;72443;-51
2023/08/30 04:12:10;;;;;;;23.90;8.20;;;;;;;20.07;100.00;100934.89;105877;1257;60394;-50
2023/08/30 04:14:37;;;;;;;13.50;7.40;;;;;;;20.19;100.00;100931.62;105715;1254;60293;-51
2023/08/30 04:17:04;;;;;;;16.90;7.10;;;;;;;20.32;100.00;100923.23;105827;1253;73102;-50
2023/08/30 04:19:34;;;;;;;16.50;7.40;;;;;;;20.45;100.00;100911.54;105861;1257;64709;-53
2023/08/30 04:22:01;;;;;;;25.30;7.80;;;;;;;20.58;100.00;100885.11;105835;1254;72640;-50
2023/08/30 04:24:28;;;;;;;21.90;7.60;;;;;;;20.69;100.00;100851.86;105696;1260;60207;-50
2023/08/30 04:26:55;;;;;;;17.60;7.30;;;;;;;20.83;100.00;100828.73;105850;1257;60273;-50
2023/08/30 04:29:22;;;;;;;20.80;7.40;;;;;;;20.96;100.00;100784.88;105658;1258;72946;-53
2023/08/30 04:31:50;;;;;;;17.70;6.80;;;;;;;21.08;100.00;100733.63;105827;1254;62727;-50
2023/08/30 04:34:17;;;;;;;22.20;7.40;;;;;;;21.23;100.00;100675.90;105844;1254;72746;-50
2023/08/30 04:36:44;;;;;;;19.50;7.70;;;;;;;21.36;100.00;100606.33;105695;1259;60203;-51
2023/08/30 04:39:13;;;;;;;16.70;7.50;;;;;;;21.52;100.00;100518.81;105896;1254;60360;-52
2023/08/30 04:41:40;;;;;;;10.90;7.60;;;;;;;21.69;100.00;100437.94;105732;1254;72961;-51
2023/08/30 04:44:07;;;;;;;15.00;7.70;;;;;;;21.86;100.00;100382.37;105801;1257;64634;-52
2023/08/30 04:46:34;;;;;;;15.60;7.60;;;;;;;22.01;100.00;100299.35;105707;1254;72645;-51
2023/08/30 04:49:01;;;;;;;20.90;8.20;;;;;;;22.12;100.00;100231.45;105703;1259;60943;-51
2023/08/30 04:51:28;;;;;;;14.20;7.30;;;;;;;22.24;100.00;100199.68;105722;1259;60252;-50
2023/08/30 04:53:57;;;;;;;16.00;7.20;;;;;;;22.37;100.00;100161.64;105874;1257;71970;-53
2023/08/30 04:56:24;;;;;;;15.90;7.10;;;;;;;22.51;100.00;100135.23;105722;1259;64690;-52
2023/08/30 04:58:51;;;;;;;13.90;7.10;;;;;;;22.59;100.00;100112.61;105830;1254;72456;-54
2023/08/30 05:01:19;;;;;;;15.20;7.20;;;;;;;22.68;100.00;100092.44;105816;1257;60858;-52
2023/08/30 05:03:49;;;;;;;12.90;7.10;;;;;;;22.74;100.00;100086.58;105861;1257;60409;-52
2023/08/30 05:06:17;;;;;;;11.40;7.00;;;;;;;22.81;100.00;100089.92;105696;1253;73763;-52
2023/08/30 05:08:44;;;;;;;13.30;7.80;;;;;;;22.84;100.00;100094.44;105866;1257;64750;-53
2023/08/30 05:11:11;;;;;;;13.80;7.20;;;;;;;22.84;100.00;100103.03;105662;1258;72377;-51
2023/08/30 05:13:39;;;;;;;7.40;5.90;;;;;;;22.86;100.00;100109.28;105673;1255;60432;-52
2023/08/30 05:16:06;;;;;;;14.30;7.50;;;;;;;22.87;100.00;100112.14;105867;1254;60412;-53
2023/08/30 05:18:33;;;;;;;13.60;6.90;;;;;;;22.89;100.00;100121.48;105619;1260;74541;-52
2023/08/30 05:21:03;;;;;;;8.90;6.00;;;;;;;22.94;100.00;100128.67;105835;1257;63302;-51
2023/08/30 05:23:31;;;;;;;12.80;6.80;;;;;;;22.98;100.00;100135.07;105833;1254;72775;-52
2023/08/30 05:25:58;;;;;;;9.80;5.80;;;;;;;23.01;100.00;100138.74;105645;1259;60413;-51
2023/08/30 05:28:25;;;;;;;12.20;6.30;;;;;;;23.00;100.00;100144.43;105719;1254;60422;-51
2023/08/30 05:30:52;;;;;;;13.40;6.70;;;;;;;22.96;100.00;100150.15;105712;1260;73796;-53
2023/08/30 05:33:40;;;;;;;15.10;6.80;;;;;;;22.91;100.00;100152.61;105778;1257;65908;-52
2023/08/30 05:36:23;;;;;;;16.50;5.80;;;;;;;22.88;100.00;100151.33;105637;1258;71141;-51
2023/08/30 05:39:14;;;;;;;12.10;6.20;;;;;;;22.87;100.00;100147.69;105774;1257;60557;-50
2023/08/30 05:41:46;;;;;;;13.10;5.50;;;;;;;22.86;100.00;100145.11;105886;1257;60412;-57
2023/08/30 05:44:15;;;;;;;11.60;6.20;;;;;;;22.86;100.00;100148.83;105809;1256;73923;-51
2023/08/30 05:46:43;;;;;;;14.60;6.30;;;;;;;22.86;100.00;100152.71;105908;1257;64735;-54
2023/08/30 05:49:11;;;;;;;12.80;5.90;;;;;;;22.85;100.00;100156.06;105691;1260;72644;-53
2023/08/30 05:51:38;;;;;;;12.80;5.90;;;;;;;22.86;100.00;100155.18;105871;1254;61989;-51
2023/08/30 05:54:05;;;;;;;14.00;5.60;;;;;;;22.87;100.00;100157.20;105862;1254;60441;-50
2023/08/30 05:56:32;;;;;;;14.90;5.90;;;;;;;22.90;100.00;100160.85;105869;1257;73942;-53
2023/08/30 05:58:59;;;;;;;12.80;6.50;;;;;;;22.93;100.00;100169.40;105876;1257;64560;-51
2023/08/30 06:01:26;;;;;;;20.60;5.50;;;;;;;22.98;100.00;100168.65;105663;1254;72657;-51
2023/08/30 06:03:54;;;;;;;6.80;4.90;;;;;;;23.04;100.00;100163.10;105857;1256;60332;-51
2023/08/30 06:06:21;;;;;;;11.30;5.20;;;;;;;23.12;100.00;100164.64;105797;1253;60537;-53
2023/08/30 06:08:49;;;;;;;13.30;4.90;;;;;;;23.19;100.00;100169.37;105848;1256;73832;-52
2023/08/30 06:11:16;;;;;;;13.60;5.50;;;;;;;23.24;100.00;100185.37;105916;1257;64671;-52
2023/08/30 06:13:43;;;;;;;11.20;4.80;;;;;;;23.29;100.00;100198.05;105809;1254;72624;-52
2023/08/30 06:16:10;;;;;;;8.50;5.10;;;;;;;23.34;100.00;100203.98;105847;1253;60431;-51
2023/08/30 06:18:37;;;;;;;20.80;6.40;;;;;;;23.39;100.00;100212.77;105880;1254;60523;-52
2023/08/30 06:21:04;;;;;;;7.40;5.30;;;;;;;23.46;100.00;100220.90;105898;1254;73831;-52
2023/08/30 06:23:34;;;;;;;11.60;5.30;;;;;;;23.53;100.00;100220.53;105939;1257;64735;-54
2023/08/30 06:26:02;;;;;;;26.20;6.10;;;;;;;23.60;100.00;100230.02;105925;1254;72578;-53
2023/08/30 06:28:30;;;;;;;17.80;6.10;;;;;;;23.68;100.00;100238.39;105898;1256;61662;-52
2023/08/30 06:30:57;;;;;;;13.20;4.70;;;;;;;23.78;100.00;100257.56;105972;1254;60485;-51
2023/08/30 06:33:24;;;;;;;7.10;5.00;;;;;;;23.83;100.00;100275.44;105934;1254;72701;-51
2023/08/30 06:35:53;;;;;;;13.30;5.10;;;;;;;23.87;100.00;100282.73;105830;1256;64760;-51
2023/08/30 06:38:20;;;;;;;11.10;5.00;;;;;;;23.89;100.00;100289.83;105893;1254;72663;-51
2023/08/30 06:40:47;;;;;;;10.50;4.80;;;;;;;23.94;100.00;100298.24;105854;1256;60413;-52
2023/08/30 06:43:14;;;;;;;12.40;5.30;;;;;;;24.03;100.00;100306.95;105898;1254;60437;-53
2023/08/30 06:45:44;;;;;;;7.90;4.90;;;;;;;24.11;100.00;100312.10;105961;1256;73904;-53
2023/08/30 06:48:11;;;;;;;12.50;4.50;;;;;;;24.21;100.00;100314.52;105959;1256;64738;-55
2023/08/30 06:50:39;;;;;;;13.70;5.00;;;;;;;24.32;100.00;100317.75;105946;1254;72533;-52
2023/08/30 06:53:06;;;;;;;10.00;4.40;;;;;;;24.44;100.00;100319.62;105923;1253;60359;-54
2023/08/30 06:55:35;;;;;;;8.90;4.40;;;;;;;24.57;100.00;100322.98;105898;1254;60405;-54
2023/08/30 06:58:02;;;;;;;13.60;4.60;;;;;;;24.67;100.00;100337.89;105937;1254;73740;-53
2023/08/30 07:00:29;;;;;;;31.00;5.20;;;;;;;24.72;100.00;100338.44;105930;1256;64763;-56
2023/08/30 07:02:56;;;;;;;15.90;5.30;;;;;;;24.79;100.00;100346.15;105946;1254;72848;-53
2023/08/30 07:05:23;;;;;;;12.30;4.60;;;;;;;24.90;100.00;100345.98;105924;1256;60680;-51
2023/08/30 07:07:50;;;;;;;10.10;5.30;;;;;;;25.05;100.00;100351.69;105884;1253;60501;-55
2023/08/30 07:10:17;;;;;;;18.10;5.30;;;;;;;25.19;100.00;100353.34;105895;1257;73713;-55
2023/08/30 07:12:48;;;;;;;20.90;5.40;;;;;;;25.32;100.00;100349.64;105879;1257;64629;-55
2023/08/30 07:15:17;;;;;;;14.40;5.70;;;;;;;25.44;100.00;100352.41;105915;1254;72653;-51
2023/08/30 07:17:44;;;;;;;23.10;5.10;;;;;;;25.54;97.69;100341.16;105939;1256;60377;-52
2023/08/30 07:20:20;;;;;;;33.80;6.40;;;;;;;25.68;99.27;100357.68;105888;1257;60513;-51
2023/08/30 07:22:47;;;;;;;19.10;5.20;;;;;;;25.82;88.83;100331.02;105969;1252;73692;-50
2023/08/30 07:25:14;;;;;;;21.20;4.90;;;;;;;25.96;86.07;100340.98;105918;1256;64734;-52
2023/08/30 07:27:41;;;;;;;17.20;4.60;;;;;;;26.12;84.12;100346.70;105894;1254;72466;-53
2023/08/30 07:30:09;;;;;;;17.80;4.80;;;;;;;26.28;81.35;100337.58;105921;1256;60430;-51
2023/08/30 07:32:37;;;;;;;16.00;4.40;;;;;;;26.44;75.86;100311.84;105928;1254;60415;-53
2023/08/30 07:35:05;;;;;;;13.30;4.40;;;;;;;26.56;74.61;100317.36;105867;1254;73803;-52
2023/08/30 07:37:32;;;;;;;8.50;4.00;;;;;;;26.68;74.91;100339.63;105921;1254;63242;-53
2023/08/30 07:39:59;;;;;;;11.30;4.10;;;;;;;26.86;73.83;100333.84;105888;1254;72638;-56
2023/08/30 07:42:26;;;;;;;11.10;3.80;;;;;;;27.02;73.90;100338.23;105761;1257;60530;-52
2023/08/30 07:44:53;;;;;;;11.30;4.00;;;;;;;27.20;73.95;100339.46;105898;1254;60738;-56
2023/08/30 07:47:20;;;;;;;11.90;4.20;;;;;;;27.34;70.22;100291.98;105865;1256;73803;-52
2023/08/30 07:49:47;;;;;;;12.80;4.00;;;;;;;27.51;68.75;100277.70;105987;1254;62617;-53
2023/08/30 07:52:14;;;;;;;10.30;4.00;;;;;;;27.69;68.96;100293.05;105908;1254;72672;-52
2023/08/30 07:54:41;;;;;;;6.30;3.40;;;;;;;27.84;67.54;100278.73;105911;1253;60399;-54
2023/08/30 07:57:08;;;;;;;9.50;4.00;;;;;;;27.93;64.60;100228.10;105926;1252;60759;-54
2023/08/30 07:59:36;;;;;;;11.00;3.70;;;;;;;28.02;64.20;100238.71;105916;1256;73836;-53
2023/08/30 08:02:06;;;;;;;12.10;3.80;;;;;;;28.16;63.19;100226.21;105953;1257;64655;-53
2023/08/30 08:04:35;;;;;;;3.80;3.40;;;;;;;28.30;61.66;100195.94;105893;1256;72024;-52
2023/08/30 08:07:03;;;;;;;9.50;3.80;;;;;;;28.43;59.71;100142.55;105840;1257;60367;-53
2023/08/30 08:09:30;;;;;;;4.50;3.50;;;;;;;28.54;58.82;100116.41;105974;1253;60440;-54
2023/08/30 08:11:57;;;;;;;5.50;3.90;;;;;;;28.68;58.75;100129.23;105902;1256;73640;-52
2023/08/30 08:14:24;;;;;;;7.60;3.70;;;;;;;28.81;58.31;100117.67;105923;1254;64598;-52
2023/08/30 08:16:51;;;;;;;10.30;3.80;;;;;;;28.91;56.41;100038.25;105880;1254;72618;-51
2023/08/30 08:19:21;;;;;;;14.30;4.10;;;;;;;28.99;55.95;100033.47;105933;1254;60578;-52
2023/08/30 08:21:54;;;;;;;12.70;4.00;;;;;;;29.14;57.51;100138.36;105929;1253;60540;-51
2023/08/30 08:24:21;;;;;;;8.00;4.50;;;;;;;29.28;56.62;100102.32;105865;1253;73920;-53
2023/08/30 08:26:48;;;;;;;8.50;3.70;;;;;;;29.35;55.75;100067.95;105890;1256;64628;-52
2023/08/30 08:29:15;;;;;;;8.70;3.60;;;;;;;29.41;54.20;99974.45;105893;1254;72502;-51
2023/08/30 08:31:42;;;;;;;7.50;3.70;;;;;;;29.48;54.34;99987.02;105892;1256;60422;-51
2023/08/30 08:34:10;;;;;;;8.00;3.70;;;;;;;29.60;55.46;100087.49;105928;1254;60623;-52
2023/08/30 08:36:39;;;;;;;8.90;3.70;;;;;;;29.73;53.98;99995.77;105910;1253;72582;-51
2023/08/30 08:39:06;;;;;;;11.60;3.90;;;;;;;29.84;53.33;99945.76;105910;1256;64702;-51
2023/08/30 08:41:41;;;;;;;19.80;4.30;;;;;;;30.01;54.13;100016.67;105850;1253;72559;-52
2023/08/30 08:44:08;;;;;;;10.70;3.90;;;;;;;30.22;52.30;99869.14;105666;1256;60444;-52
2023/08/30 08:46:36;;;;;;;7.00;3.50;;;;;;;30.28;50.93;99747.07;105587;1254;60425;-51
2023/08/30 08:49:16;;;;;;;20.80;4.50;;;;;;;30.35;51.25;99804.64;105898;1252;72291;-52
2023/08/30 08:51:44;;;;;;;10.50;3.80;;;;;;;30.47;52.24;99911.16;105882;1257;64471;-53
2023/08/30 08:54:12;;;;;;;12.90;3.50;;;;;;;30.58;52.76;99971.52;105777;1254;72676;-53
2023/08/30 08:56:39;;;;;;;12.80;4.00;;;;;;;30.63;51.64;99876.78;105693;1257;60399;-54
2023/08/30 08:59:08;;;;;;;9.00;3.30;;;;;;;30.70;51.64;99886.41;105862;1253;60312;-53
2023/08/30 09:01:39;;;;;;;18.30;3.60;;;;;;;30.81;51.74;99896.77;105858;1254;75629;-52
2023/08/30 09:04:08;;;;;;;21.50;4.00;;;;;;;30.86;51.66;99909.23;105753;1252;65548;-56
2023/08/30 09:06:36;;;;;;;10.30;3.50;;;;;;;30.95;51.52;99896.35;105684;1252;72792;-52
2023/08/30 09:09:03;;;;;;;10.90;3.60;;;;;;;31.10;50.28;99775.17;105678;1256;60293;-56
2023/08/30 09:11:31;;;;;;;9.20;4.10;;;;;;;31.23;50.51;99807.73;105555;1260;60369;-51
2023/08/30 09:14:21;;;;;;;24.90;3.90;;;;;;;31.38;50.18;99769.64;105682;1257;74631;-53
2023/08/30 09:17:03;;;;;;;11.90;4.10;;;;;;;31.44;48.70;99640.44;105706;1256;64489;-52
2023/08/30 09:19:30;;;;;;;7.90;3.70;;;;;;;31.43;47.89;99554.48;105703;1254;72513;-53
2023/08/30 09:21:58;;;;;;;7.40;3.70;;;;;;;31.43;47.50;99541.67;105756;1254;60466;-55
2023/08/30 09:24:25;;;;;;;8.00;3.10;;;;;;;31.39;46.88;99469.23;105714;1253;61129;-53
2023/08/30 09:26:53;;;;;;;13.30;3.60;;;;;;;31.37;46.65;99466.53;105681;1254;73479;-52
2023/08/30 09:29:23;;;;;;;12.00;3.60;;;;;;;31.35;46.00;99391.14;105814;1253;64661;-54
2023/08/30 09:31:52;;;;;;;12.40;3.30;;;;;;;31.32;46.24;99425.65;105682;1254;73016;-53
2023/08/30 09:34:28;;;;;;;13.60;4.00;;;;;;;31.32;46.61;99484.73;105770;1254;61112;-56
2023/08/30 09:36:55;;;;;;;15.30;3.60;;;;;;;31.32;47.08;99529.06;105764;1254;60779;-54
2023/08/30 09:39:22;;;;;;;8.80;4.00;;;;;;;31.37;46.42;99497.25;105686;1257;74130;-53
2023/08/30 09:41:50;;;;;;;6.50;3.70;;;;;;;31.45;46.33;99463.86;105690;1256;64753;-52
2023/08/30 09:44:24;;;;;;;8.70;3.50;;;;;;;31.58;46.80;99535.20;105671;1256;71772;-53
2023/08/30 09:46:55;;;;;;;7.40;3.70;;;;;;;31.68;46.25;99488.30;105887;1257;60514;-54
2023/08/30 09:49:24;;;;;;;7.30;4.20;;;;;;;31.74;44.95;99336.86;105697;1253;61785;-54
2023/08/30 09:51:53;;;;;;;26.20;4.20;;;;;;;31.77;44.40;99289.57;105679;1253;72869;-55
2023/08/30 09:54:23;;;;;;;21.80;3.90;;;;;;;31.78;45.41;99370.95;105814;1254;64040;-53
2023/08/30 09:57:05;;;;;;;5.70;3.20;;;;;;;31.81;43.98;99230.31;105791;1254;72474;-54
2023/08/30 09:59:33;;;;;;;5.30;4.20;;;;;;;31.85;45.05;99341.38;105598;1259;60415;-54
2023/08/30 10:02:00;;;;;;;15.20;3.80;;;;;;;31.98;45.34;99408.34;105667;1254;60530;-54
2023/08/30 10:04:28;;;;;;;7.30;3.70;;;;;;;32.10;45.00;99363.52;105611;1256;73855;-54
2023/08/30 10:06:55;;;;;;;10.60;3.60;;;;;;;32.23;43.62;99211.48;105728;1259;64658;-53
2023/08/30 10:09:22;;;;;;;7.20;4.10;;;;;;;32.25;43.55;99189.18;105903;1254;72774;-54
2023/08/30 10:11:49;;;;;;;14.40;4.20;;;;;;;32.19;43.21;99143.50;105689;1257;60435;-55
2023/08/30 10:14:16;;;;;;;18.20;3.90;;;;;;;32.30;44.56;99292.17;105797;1254;60501;-54
2023/08/30 10:16:47;;;;;;;10.40;4.30;;;;;;;32.50;44.13;99274.06;105877;1253;73610;-54
2023/08/30 10:19:15;;;;;;;9.30;3.90;;;;;;;32.55;44.11;99237.22;105875;1253;63357;-53
2023/08/30 10:21:47;;;;;;;7.80;3.90;;;;;;;32.56;43.72;99234.79;105767;1253;72587;-56
2023/08/30 10:24:16;;;;;;;15.90;3.80;;;;;;;32.59;43.65;99204.85;105733;1256;60431;-54
2023/08/30 10:27:04;;;;;;;15.50;4.10;;;;;;;32.66;42.41;99076.40;105740;1254;62047;-53
2023/08/30 10:29:36;;;;;;;7.00;3.60;;;;;;;32.66;42.35;99064.19;105751;1252;72529;-55
2023/08/30 10:32:04;;;;;;;11.70;3.40;;;;;;;32.71;42.45;99104.84;105770;1254;66701;-55
2023/08/30 10:34:35;;;;;;;15.60;3.90;;;;;;;32.77;41.89;99025.64;105799;1253;73395;-54
2023/08/30 10:37:06;;;;;;;9.60;3.40;;;;;;;32.74;41.35;98966.70;105724;1253;60450;-54
2023/08/30 10:39:40;;;;;;;14.90;4.30;;;;;;;32.67;42.31;99063.14;105602;1254;60418;-54
2023/08/30 10:42:11;;;;;;;12.70;3.80;;;;;;;32.63;42.52;99109.38;105692;1252;73968;-54
2023/08/30 10:44:52;;;;;;;7.20;3.90;;;;;;;32.70;43.11;99183.52;105727;1260;64868;-54
2023/08/30 10:47:40;;;;;;;5.00;3.20;;;;;;;32.59;41.11;98977.31;105616;1257;72555;-53
2023/08/30 10:50:11;;;;;;;7.00;3.30;;;;;;;32.51;41.29;98974.20;105693;1253;60576;-55
2023/08/30 10:52:39;;;;;;;7.70;3.50;;;;;;;32.57;42.28;99111.59;105663;1253;60742;-53
2023/08/30 10:55:09;;;;;;;8.00;3.20;;;;;;;32.63;41.93;99086.02;105681;1254;73820;-54
2023/08/30 10:57:41;;;;;;;9.10;3.50;;;;;;;32.64;41.08;98977.71;105610;1257;64846;-55
2023/08/30 11:00:13;;;;;;;10.70;3.50;;;;;;;32.59;41.05;98963.35;105601;1257;72535;-53
2023/08/30 11:02:43;;;;;;;5.80;3.80;;;;;;;32.53;41.76;99052.65;105700;1258;60657;-55
2023/08/30 11:05:11;;;;;;;9.90;4.30;;;;;;;32.44;41.80;99076.00;105719;1253;60395;-53
2023/08/30 11:07:38;;;;;;;10.20;3.80;;;;;;;32.42;42.35;99142.66;105887;1253;73790;-54
2023/08/30 11:10:08;;;;;;;8.20;4.00;;;;;;;32.50;41.18;99016.50;105760;1256;65177;-53
2023/08/30 11:12:35;;;;;;;20.30;4.30;;;;;;;32.50;41.59;99036.64;105763;1253;72610;-54
2023/08/30 11:15:03;;;;;;;8.60;4.00;;;;;;;32.48;41.65;99060.80;105754;1252;61989;-56